Time;durP1;ratioP1;P1;durP2;ratioP2;P2;SDS_P1;SDS_P2;PMS_P1;PMS_P2;Temp;Humidity;BMP_temperature;BMP_pressure;BME280_temperature;BME280_humidity;BME280_pressure;Samples;Min_cycle;Max_cycle;Signal;HPM_P1;HPM_P2
2022/11/01 00:01:45;;;;;;;0.10;0.10;;;11.70;99.90;11.10;96982.00;;;;5052332;28;20190;-73
2022/11/01 00:04:13;;;;;;;0.00;0.00;;;11.90;99.90;11.20;96981.00;;;;5052735;28;20282;-72
2022/11/01 00:06:41;;;;;;;0.10;0.10;;;12.10;99.90;11.40;96971.00;;;;5052174;28;20226;-73
2022/11/01 00:09:10;;;;;;;0.00;0.00;;;12.20;99.90;11.50;96976.00;;;;5051875;28;20218;-73
2022/11/01 00:11:38;;;;;;;0.10;0.10;;;12.40;99.90;11.60;96977.00;;;;5051697;28;20245;-72
2022/11/01 00:14:07;;;;;;;0.05;0.05;;;12.40;99.90;11.70;96982.00;;;;5052943;28;20191;-72
2022/11/01 00:16:35;;;;;;;0.10;0.10;;;12.50;99.90;11.70;96997.00;;;;5050994;28;20214;-72
2022/11/01 00:19:04;;;;;;;0.00;0.00;;;12.50;99.90;11.70;97002.00;;;;5051762;28;20569;-72
2022/11/01 00:21:32;;;;;;;0.10;0.10;;;12.50;99.90;11.70;96988.00;;;;5052390;28;20605;-73
2022/11/01 00:24:01;;;;;;;0.10;0.10;;;12.50;99.90;11.70;96998.00;;;;5052079;28;20202;-73
2022/11/01 00:26:29;;;;;;;0.10;0.10;;;12.50;99.90;11.70;97014.00;;;;5051786;28;20218;-73
2022/11/01 00:28:57;;;;;;;0.10;0.10;;;12.60;99.90;11.70;96997.00;;;;5051410;28;20211;-73
2022/11/01 00:31:25;;;;;;;0.00;0.00;;;12.60;99.90;11.80;97006.00;;;;5052181;28;20598;-72
2022/11/01 00:33:53;;;;;;;0.10;0.10;;;12.60;99.90;11.70;97009.00;;;;5052180;28;20205;-72
2022/11/01 00:36:23;;;;;;;0.10;0.10;;;12.70;99.90;11.90;97013.00;;;;5044220;28;20285;-73
2022/11/01 00:38:52;;;;;;;0.10;0.10;;;12.70;99.90;11.80;97003.00;;;;5056043;28;20198;-73
2022/11/01 00:41:20;;;;;;;0.10;0.10;;;12.70;99.90;11.90;97018.00;;;;5062342;28;20728;-73
2022/11/01 00:43:49;;;;;;;0.10;0.10;;;12.70;99.90;11.80;97035.00;;;;5061209;28;20260;-73
2022/11/01 00:46:17;;;;;;;0.10;0.10;;;12.70;99.90;11.90;97039.00;;;;5061898;28;20222;-70
2022/11/01 00:48:45;;;;;;;0.10;0.10;;;12.70;99.90;12.00;97063.00;;;;5060579;28;20194;-70
2022/11/01 00:51:13;;;;;;;0.10;0.10;;;12.80;99.90;12.10;97042.00;;;;5062645;28;20202;-71
2022/11/01 00:53:43;;;;;;;0.10;0.10;;;12.90;99.90;12.10;97171.00;;;;5060968;28;20198;-70
2022/11/01 00:56:11;;;;;;;0.00;0.00;;;12.90;99.90;12.10;97172.00;;;;5061841;28;20244;-70
2022/11/01 00:58:39;;;;;;;0.10;0.10;;;13.00;99.90;12.20;97104.00;;;;5049648;28;20203;-70
2022/11/01 01:01:07;;;;;;;0.10;0.10;;;13.10;99.90;12.30;97109.00;;;;5050318;28;20719;-71
2022/11/01 01:03:36;;;;;;;0.05;0.05;;;13.10;99.90;12.40;97108.00;;;;5051973;28;20685;-72
2022/11/01 01:06:05;;;;;;;0.10;0.10;;;13.20;99.90;12.40;97103.00;;;;5051185;28;20218;-70
2022/11/01 01:08:33;;;;;;;0.10;0.10;;;13.20;99.90;12.40;97104.00;;;;5031217;28;20673;-71
2022/11/01 01:11:02;;;;;;;0.10;0.10;;;13.30;99.90;12.50;97111.00;;;;5032072;28;20222;-70
2022/11/01 01:13:30;;;;;;;0.00;0.00;;;13.30;99.90;12.50;97063.00;;;;5046099;28;20255;-70
2022/11/01 01:15:58;;;;;;;0.10;0.10;;;13.30;99.90;12.60;97104.00;;;;5051151;28;20697;-70
2022/11/01 01:18:27;;;;;;;0.00;0.00;;;13.40;99.90;12.60;97107.00;;;;5051517;28;20190;-70
2022/11/01 01:21:04;;;;;;;0.10;0.10;;;13.40;99.90;12.60;97061.00;;;;5051787;28;20194;-72
2022/11/01 01:23:33;;;;;;;0.10;0.10;;;13.40;99.90;12.80;97092.00;;;;5051324;28;20194;-70
2022/11/01 01:26:07;;;;;;;0.00;0.00;;;13.60;99.90;12.80;97096.00;;;;5051500;28;20218;-71
2022/11/01 01:28:39;;;;;;;0.10;0.10;;;13.60;99.90;12.80;97093.00;;;;5051149;28;20669;-72
2022/11/01 01:31:12;;;;;;;0.10;0.10;;;13.60;99.90;12.80;97091.00;;;;5051312;28;20222;-70
2022/11/01 01:33:41;;;;;;;0.00;0.00;;;13.60;99.90;12.90;97071.00;;;;5051185;28;20281;-70
2022/11/01 01:36:09;;;;;;;0.10;0.10;;;13.70;99.90;12.90;97097.00;;;;5050794;28;20280;-70
2022/11/01 01:38:37;;;;;;;0.10;0.10;;;13.70;99.90;12.90;97098.00;;;;5051359;28;20244;-71
2022/11/01 01:43:52;;;;;;;0.10;0.10;;;13.70;99.90;12.90;97053.00;;;;5051556;28;20186;-70
2022/11/01 01:46:21;;;;;;;0.10;0.10;;;13.70;99.90;13.00;97045.00;;;;5055605;28;20230;-69
2022/11/01 01:48:59;;;;;;;0.10;0.10;;;13.80;99.90;13.00;97042.00;;;;5050498;28;20202;-70
2022/11/01 01:51:29;;;;;;;0.00;0.00;;;13.80;99.90;12.90;97099.00;;;;5051564;28;20229;-70
2022/11/01 01:53:59;;;;;;;0.00;0.00;;;13.70;99.90;13.00;97076.00;;;;5051648;28;20194;-71
2022/11/01 01:56:33;;;;;;;0.10;0.10;;;13.80;99.90;13.00;97071.00;;;;5051591;28;20255;-71
2022/11/01 01:59:06;;;;;;;0.00;0.00;;;13.80;99.90;13.00;97062.00;;;;5051796;28;20205;-70
2022/11/01 02:01:39;;;;;;;0.00;0.00;;;13.80;99.90;13.10;97070.00;;;;5051713;28;20661;-71
2022/11/01 02:04:18;;;;;;;0.10;0.10;;;13.80;99.90;13.10;97095.00;;;;5051434;28;20588;-71
2022/11/01 02:06:48;;;;;;;0.10;0.10;;;13.80;99.90;13.10;97051.00;;;;5051210;28;20222;-71
2022/11/01 02:09:18;;;;;;;0.00;0.00;;;13.90;99.90;13.10;97073.00;;;;5050931;28;20194;-71
2022/11/01 02:11:47;;;;;;;0.10;0.10;;;13.90;99.90;13.10;97075.00;;;;5050988;28;20320;-70
2022/11/01 02:14:17;;;;;;;0.00;0.00;;;13.80;99.90;13.00;97064.00;;;;5033607;28;20218;-71
2022/11/01 02:16:58;;;;;;;0.10;0.10;;;13.80;99.90;13.00;97069.00;;;;5051191;28;20214;-71
2022/11/01 02:20:08;;;;;;;0.00;0.00;;;13.80;99.90;13.00;97089.00;;;;5055110;28;20194;-70
2022/11/01 02:23:31;;;;;;;0.10;0.10;;;13.80;99.90;12.90;97098.00;;;;5040742;28;20198;-71
2022/11/01 02:26:35;;;;;;;0.10;0.10;;;13.70;99.90;12.90;97107.00;;;;5054815;28;20253;-72
2022/11/01 02:29:23;;;;;;;0.00;0.00;;;13.70;99.90;13.00;97114.00;;;;5054759;28;20248;-72
2022/11/01 02:32:16;;;;;;;0.10;0.10;;;13.70;99.90;12.90;97098.00;;;;5055322;28;20677;-72
2022/11/01 02:34:53;;;;;;;0.00;0.00;;;13.70;99.90;12.80;97096.00;;;;5054846;28;20201;-72
2022/11/01 02:37:28;;;;;;;0.10;0.10;;;13.60;99.90;12.80;97111.00;;;;5054384;28;20269;-72
2022/11/01 02:40:04;;;;;;;0.10;0.10;;;13.60;99.90;12.70;97118.00;;;;5054223;28;20335;-72
2022/11/01 02:42:40;;;;;;;0.00;0.00;;;13.50;99.90;12.70;97119.00;;;;5054567;28;20198;-72
2022/11/01 02:45:27;;;;;;;0.00;0.00;;;13.60;99.90;12.80;97138.00;;;;5054971;28;20194;-72
2022/11/01 02:47:59;;;;;;;0.00;0.00;;;13.60;99.90;12.80;97144.00;;;;5034215;28;20187;-72
2022/11/01 02:50:33;;;;;;;0.00;0.00;;;13.60;99.90;12.80;97153.00;;;;5045193;28;20336;-72
2022/11/01 02:53:02;;;;;;;0.00;0.00;;;13.60;99.90;12.80;97116.00;;;;5054611;28;20190;-71
2022/11/01 02:55:34;;;;;;;0.00;0.00;;;13.60;99.90;12.70;97161.00;;;;5053977;28;20190;-72
2022/11/01 02:58:06;;;;;;;0.00;0.00;;;13.60;99.90;12.70;97164.00;;;;5054053;28;20205;-72
2022/11/01 03:00:36;;;;;;;0.00;0.00;;;13.50;99.90;12.70;97123.00;;;;5054719;28;20199;-72
2022/11/01 03:03:16;;;;;;;0.10;0.10;;;13.50;99.90;12.70;97155.00;;;;5044612;28;20202;-71
2022/11/01 03:06:03;;;;;;;0.10;0.10;;;13.50;99.90;12.60;97152.00;;;;5051543;28;20218;-71
2022/11/01 03:08:36;;;;;;;0.10;0.10;;;13.40;99.90;12.60;97123.00;;;;5053103;28;20202;-72
2022/11/01 03:11:10;;;;;;;0.10;0.10;;;13.40;99.90;12.60;97112.00;;;;5050050;28;20214;-72
2022/11/01 03:14:00;;;;;;;0.10;0.10;;;13.40;99.90;12.60;97063.00;;;;5051957;28;20212;-73
2022/11/01 03:16:33;;;;;;;0.00;0.00;;;13.40;99.90;12.60;97118.00;;;;5048353;28;20276;-72
2022/11/01 03:19:19;;;;;;;0.00;0.00;;;13.40;99.90;12.60;97120.00;;;;5054146;28;20244;-73
2022/11/01 03:21:59;;;;;;;0.10;0.10;;;13.40;99.90;12.70;97129.00;;;;5054444;28;20709;-72
2022/11/01 03:24:30;;;;;;;0.00;0.00;;;13.50;99.90;12.70;97123.00;;;;5051769;28;20198;-73
2022/11/01 03:27:05;;;;;;;0.00;0.00;;;13.50;99.90;12.70;97123.00;;;;5047571;28;20264;-73
2022/11/01 03:29:37;;;;;;;0.05;0.05;;;13.50;99.90;12.70;97156.00;;;;5049132;28;20197;-73
2022/11/01 03:32:08;;;;;;;0.05;0.05;;;13.50;99.90;12.70;97173.00;;;;5047361;28;20679;-72
2022/11/01 03:34:40;;;;;;;0.00;0.00;;;13.50;99.90;12.70;97172.00;;;;5048626;28;20217;-73
2022/11/01 03:37:12;;;;;;;0.10;0.10;;;13.50;99.90;12.70;97134.00;;;;5045423;28;20218;-73
2022/11/01 03:39:45;;;;;;;0.03;0.03;;;13.50;99.90;12.70;97127.00;;;;5051328;28;20202;-72
2022/11/01 03:42:19;;;;;;;0.00;0.00;;;13.50;99.90;12.70;97130.00;;;;5048815;28;20206;-71
2022/11/01 03:44:53;;;;;;;0.00;0.00;;;13.50;99.90;12.70;97133.00;;;;5053663;28;20267;-73
2022/11/01 03:47:22;;;;;;;0.08;0.08;;;13.50;99.90;12.70;97093.00;;;;5050557;28;20275;-73
2022/11/01 03:50:14;;;;;;;0.00;0.00;;;13.50;99.90;12.80;97134.00;;;;5050662;28;20203;-73
2022/11/01 03:52:42;;;;;;;0.00;0.00;;;13.50;99.90;12.80;97124.00;;;;5049768;28;20202;-73
2022/11/01 03:55:20;;;;;;;0.00;0.00;;;13.60;99.90;12.80;97133.00;;;;5048074;28;20670;-73
2022/11/01 03:57:50;;;;;;;0.03;0.03;;;13.60;99.90;12.80;97128.00;;;;5049670;28;20198;-74
2022/11/01 04:00:22;;;;;;;0.10;0.10;;;13.60;99.90;12.80;97171.00;;;;5052746;28;20224;-73
2022/11/01 04:02:52;;;;;;;0.00;0.00;;;13.60;99.90;12.80;97168.00;;;;5049561;28;20665;-74
2022/11/01 04:05:24;;;;;;;0.10;0.10;;;13.60;99.90;12.80;97156.00;;;;5051618;28;20205;-74
2022/11/01 04:07:52;;;;;;;0.00;0.00;;;13.60;99.90;12.80;97169.00;;;;5051525;28;20198;-75
2022/11/01 04:10:22;;;;;;;0.00;0.00;;;13.60;99.90;12.90;97163.00;;;;5050974;28;20205;-73
2022/11/01 04:12:51;;;;;;;0.00;0.00;;;13.60;99.90;12.90;97158.00;;;;5052874;28;20535;-73
2022/11/01 04:21:08;;;;;;;0.00;0.00;;;13.60;99.90;12.80;97160.00;;;;5032929;28;20210;-74
2022/11/01 04:23:37;;;;;;;0.00;0.00;;;13.60;99.90;12.80;97169.00;;;;5051698;28;20255;-73
2022/11/01 04:26:07;;;;;;;0.00;0.00;;;13.60;99.90;12.80;97124.00;;;;5042576;28;20264;-73
2022/11/01 04:28:35;;;;;;;0.00;0.00;;;13.60;99.90;12.70;97126.00;;;;5034658;28;20195;-73
2022/11/01 04:31:03;;;;;;;0.00;0.00;;;13.60;99.90;12.70;97125.00;;;;5043928;28;20230;-74
2022/11/01 04:33:32;;;;;;;0.00;0.00;;;13.50;99.90;12.70;97132.00;;;;5052620;28;20198;-74
2022/11/01 04:36:06;;;;;;;0.00;0.00;;;13.50;99.90;12.70;97118.00;;;;5052276;28;20576;-73
2022/11/01 04:38:34;;;;;;;0.10;0.10;;;13.50;99.90;12.70;97136.00;;;;5048121;28;20658;-73
2022/11/01 04:41:02;;;;;;;0.00;0.00;;;13.50;99.90;12.70;97134.00;;;;5041507;28;20573;-75
2022/11/01 04:43:30;;;;;;;0.08;0.08;;;13.50;99.90;12.70;97133.00;;;;5039912;28;20206;-74
2022/11/01 04:45:59;;;;;;;0.00;0.00;;;13.50;99.90;12.70;97128.00;;;;5049160;28;20218;-74
2022/11/01 04:48:27;;;;;;;0.08;0.08;;;13.50;99.90;12.70;97165.00;;;;5045793;28;20210;-74
2022/11/01 04:50:55;;;;;;;0.03;0.03;;;13.50;99.90;12.70;97134.00;;;;5048758;28;20195;-74
2022/11/01 04:53:24;;;;;;;0.10;0.10;;;13.50;99.90;12.70;97128.00;;;;5052424;28;20194;-74
2022/11/01 04:55:52;;;;;;;0.00;0.00;;;13.50;99.90;12.70;97126.00;;;;5051700;28;20210;-74
2022/11/01 04:58:21;;;;;;;0.00;0.00;;;13.50;99.90;12.70;97140.00;;;;5051346;28;20198;-73
2022/11/01 05:00:49;;;;;;;0.00;0.00;;;13.50;99.90;12.70;97143.00;;;;5048170;28;20248;-73
2022/11/01 05:03:17;;;;;;;0.10;0.10;;;13.50;99.90;12.60;97143.00;;;;5049545;28;20570;-73
2022/11/01 05:05:45;;;;;;;0.00;0.00;;;13.40;99.90;12.60;97143.00;;;;5047957;28;20260;-73
2022/11/01 05:08:14;;;;;;;0.00;0.00;;;13.40;99.90;12.60;97140.00;;;;5049558;28;20191;-73
2022/11/01 05:10:44;;;;;;;0.00;0.00;;;13.40;99.90;12.60;97151.00;;;;5048350;28;20253;-72
2022/11/01 05:13:13;;;;;;;0.10;0.10;;;13.50;99.90;12.70;97143.00;;;;5049498;28;20222;-73
2022/11/01 05:15:41;;;;;;;0.00;0.00;;;13.50;99.90;12.70;97140.00;;;;5038434;28;20214;-73
2022/11/01 05:18:29;;;;;;;0.00;0.00;;;13.50;99.90;12.70;97158.00;;;;5031931;28;20276;-73
2022/11/01 05:20:58;;;;;;;0.10;0.10;;;13.50;99.90;12.70;97146.00;;;;5040515;28;20199;-73
2022/11/01 05:23:26;;;;;;;0.00;0.00;;;13.50;99.90;12.70;97148.00;;;;5042884;28;20734;-73
2022/11/01 05:25:56;;;;;;;0.00;0.00;;;13.50;99.90;12.70;97165.00;;;;5040600;28;20245;-73
2022/11/01 05:28:24;;;;;;;0.00;0.00;;;13.50;99.90;12.70;97162.00;;;;5045568;28;20194;-73
2022/11/01 05:30:52;;;;;;;0.00;0.00;;;13.50;99.90;12.70;97178.00;;;;5046278;28;20276;-73
2022/11/01 05:33:20;;;;;;;0.10;0.10;;;13.50;99.90;12.70;97177.00;;;;5041521;28;20640;-73
2022/11/01 05:35:48;;;;;;;0.00;0.00;;;13.50;99.90;12.70;97176.00;;;;5050580;28;20221;-73
2022/11/01 05:38:16;;;;;;;0.00;0.00;;;13.50;99.90;12.70;97176.00;;;;5051132;28;20255;-71
2022/11/01 05:40:45;;;;;;;0.00;0.00;;;13.50;99.90;12.70;97184.00;;;;5047835;28;20198;-71
2022/11/01 05:43:15;;;;;;;0.00;0.00;;;13.50;99.90;12.70;97181.00;;;;5044963;28;20217;-72
2022/11/01 05:45:43;;;;;;;0.00;0.00;;;13.50;99.90;12.70;97185.00;;;;5042913;28;20214;-71
2022/11/01 05:48:11;;;;;;;0.00;0.00;;;13.50;99.90;12.70;97185.00;;;;5030865;28;20245;-71
2022/11/01 05:50:39;;;;;;;0.00;0.00;;;13.50;99.90;12.70;97185.00;;;;5050743;28;20190;-71
2022/11/01 05:53:09;;;;;;;0.10;0.10;;;13.50;99.90;12.70;97193.00;;;;5050745;28;20630;-73
2022/11/01 05:55:38;;;;;;;0.10;0.10;;;13.50;99.90;12.80;97194.00;;;;5051750;28;20202;-71
2022/11/01 05:58:06;;;;;;;0.00;0.00;;;13.60;99.90;12.80;97193.00;;;;5048550;28;20197;-72
2022/11/01 06:00:36;;;;;;;0.08;0.08;;;13.60;99.90;12.80;97191.00;;;;5040873;28;20661;-73
2022/11/01 06:03:05;;;;;;;0.10;0.10;;;13.60;99.90;12.80;97207.00;;;;5050179;28;20214;-74
2022/11/01 06:05:34;;;;;;;0.00;0.00;;;13.60;99.90;12.70;97198.00;;;;5051087;28;20241;-73
2022/11/01 06:08:04;;;;;;;0.00;0.00;;;13.50;99.90;12.70;97214.00;;;;5050992;28;20191;-73
2022/11/01 06:10:33;;;;;;;0.00;0.00;;;13.50;99.90;12.70;97246.00;;;;5051105;28;20252;-74
2022/11/01 06:13:01;;;;;;;0.00;0.00;;;13.50;99.90;12.70;97211.00;;;;5048154;28;20214;-73
2022/11/01 06:15:30;;;;;;;0.00;0.00;;;13.60;99.90;12.70;97213.00;;;;5031311;28;20732;-73
2022/11/01 06:18:05;;;;;;;0.00;0.00;;;13.60;99.90;12.80;97217.00;;;;5039301;28;20190;-74
2022/11/01 06:20:36;;;;;;;0.00;0.00;;;13.60;99.90;12.70;97225.00;;;;5041750;28;20555;-74
2022/11/01 06:23:10;;;;;;;0.10;0.10;;;13.50;99.90;12.70;97198.00;;;;5050093;28;20202;-74
2022/11/01 06:25:38;;;;;;;0.00;0.00;;;13.60;99.90;12.80;97235.00;;;;5051614;28;20199;-75
2022/11/01 06:28:06;;;;;;;0.00;0.00;;;13.60;99.90;12.70;97231.00;;;;5050598;28;20194;-74
2022/11/01 06:30:37;;;;;;;0.00;0.00;;;13.50;99.90;12.70;97235.00;;;;5051062;28;20190;-73
2022/11/01 06:33:08;;;;;;;0.05;0.05;;;13.50;99.90;12.70;97279.00;;;;5050562;28;20602;-73
2022/11/01 06:35:37;;;;;;;0.00;0.00;;;13.50;99.90;12.70;97245.00;;;;5050791;28;20194;-74
2022/11/01 06:38:07;;;;;;;0.00;0.00;;;13.50;99.90;12.60;97230.00;;;;5050383;28;20191;-74
2022/11/01 06:40:36;;;;;;;0.08;0.08;;;13.40;99.90;12.60;97278.00;;;;5050857;28;20686;-74
2022/11/01 06:43:06;;;;;;;0.10;0.10;;;13.40;99.90;12.60;97220.00;;;;5047521;28;20199;-74
2022/11/01 06:48:25;;;;;;;0.00;0.00;;;13.50;99.90;12.70;97234.00;;;;5012315;28;20199;-75
2022/11/01 06:50:54;;;;;;;0.10;0.10;;;13.60;99.90;12.80;97238.00;;;;5012797;28;20196;-75
2022/11/01 06:53:23;;;;;;;0.10;0.10;;;13.60;99.90;12.80;97248.00;;;;5012031;28;20239;-76
2022/11/01 06:55:52;;;;;;;0.10;0.10;;;13.60;99.90;12.90;97191.00;;;;5012983;28;20191;-75
2022/11/01 06:58:20;;;;;;;0.00;0.00;;;13.70;99.90;12.90;97247.00;;;;5011344;28;20218;-75
2022/11/01 07:00:48;;;;;;;0.00;0.00;;;13.80;99.90;13.00;97247.00;;;;5011669;28;20588;-75
2022/11/01 07:03:16;;;;;;;0.00;0.00;;;13.80;99.90;13.00;97265.00;;;;5011572;28;20198;-75
2022/11/01 07:05:48;;;;;;;0.10;0.10;;;13.80;99.90;13.00;97278.00;;;;5014846;28;20216;-76
2022/11/01 07:08:16;;;;;;;0.00;0.00;;;13.80;99.90;13.00;97295.00;;;;5012413;28;20200;-75
2022/11/01 07:10:45;;;;;;;0.00;0.00;;;13.70;99.90;13.00;97299.00;;;;5004965;28;20205;-75
2022/11/01 07:13:14;;;;;;;0.10;0.10;;;13.80;99.90;13.00;97310.00;;;;4999425;28;20637;-74
2022/11/01 07:15:42;;;;;;;0.10;0.10;;;13.80;99.90;13.00;97309.00;;;;5007773;28;20216;-74
2022/11/01 07:18:10;;;;;;;0.10;0.10;;;13.80;99.90;13.00;97315.00;;;;5023277;28;20200;-74
2022/11/01 07:20:42;;;;;;;0.05;0.05;;;13.80;99.90;13.00;97321.00;;;;5020660;28;20199;-75
2022/11/01 07:23:15;;;;;;;0.03;0.03;;;13.80;99.90;13.00;97318.00;;;;4998737;28;20270;-75
2022/11/01 07:25:43;;;;;;;0.00;0.00;;;13.80;99.90;13.10;97354.00;;;;5014546;28;20191;-75
2022/11/01 07:28:12;;;;;;;0.00;0.00;;;13.90;99.90;13.10;97349.00;;;;5013927;28;20196;-75
2022/11/01 07:30:40;;;;;;;0.00;0.00;;;13.90;99.90;13.10;97348.00;;;;5014285;28;20200;-75
2022/11/01 07:33:08;;;;;;;0.00;0.00;;;13.90;99.90;13.10;97351.00;;;;5014320;28;20281;-76
2022/11/01 07:35:36;;;;;;;0.08;0.08;;;13.90;99.90;13.10;97363.00;;;;4997443;28;20212;-75
2022/11/01 07:38:04;;;;;;;0.00;0.00;;;13.90;99.90;13.10;97365.00;;;;5014400;28;20198;-75
2022/11/01 07:40:43;;;;;;;0.00;0.00;;;13.90;99.90;13.20;97370.00;;;;5014934;28;20560;-75
2022/11/01 07:43:11;;;;;;;0.05;0.05;;;13.90;99.90;13.20;97368.00;;;;5014387;28;20203;-75
2022/11/01 07:45:39;;;;;;;0.00;0.00;;;13.90;99.90;13.20;97330.00;;;;5014596;28;20191;-75
2022/11/01 07:48:12;;;;;;;0.00;0.00;;;14.00;99.90;13.30;97335.00;;;;5013900;28;20204;-75
2022/11/01 07:50:42;;;;;;;0.00;0.00;;;14.10;99.90;13.40;97357.00;;;;5014511;28;20195;-75
2022/11/01 07:53:13;;;;;;;0.00;0.00;;;14.10;99.90;13.40;97327.00;;;;5014929;28;20227;-76
2022/11/01 07:55:43;;;;;;;0.00;0.00;;;14.20;99.90;13.50;97369.00;;;;5014116;28;20271;-75
2022/11/01 07:58:12;;;;;;;0.00;0.00;;;14.20;99.90;13.50;97365.00;;;;5013433;28;20192;-75
2022/11/01 08:00:42;;;;;;;0.10;0.10;;;14.20;99.90;13.50;97363.00;;;;5013888;28;20187;-75
2022/11/01 08:03:14;;;;;;;0.00;0.00;;;14.30;99.90;13.40;97368.00;;;;5014118;28;20192;-75
2022/11/01 08:05:44;;;;;;;0.00;0.00;;;14.30;99.90;13.60;97365.00;;;;5014343;28;20200;-75
2022/11/01 08:08:14;;;;;;;0.00;0.00;;;14.30;99.90;13.60;97339.00;;;;5013582;28;20195;-76
2022/11/01 08:10:44;;;;;;;0.00;0.00;;;14.30;99.90;13.60;97377.00;;;;4996023;28;20207;-75
2022/11/01 08:13:16;;;;;;;0.10;0.10;;;14.40;99.90;13.70;97369.00;;;;5014339;28;20223;-75
2022/11/01 08:15:45;;;;;;;0.10;0.10;;;14.40;99.90;13.70;97365.00;;;;4995138;28;20250;-75
2022/11/01 08:18:14;;;;;;;0.00;0.00;;;14.40;99.90;13.70;97382.00;;;;5014250;28;20598;-75
2022/11/01 08:20:42;;;;;;;0.00;0.00;;;14.50;99.90;13.80;97375.00;;;;5015909;28;20196;-75
2022/11/01 08:23:11;;;;;;;0.00;0.00;;;14.50;99.90;13.80;97380.00;;;;5009223;28;20218;-75
2022/11/01 08:25:40;;;;;;;0.00;0.00;;;14.60;99.90;13.90;97384.00;;;;4994558;28;20567;-75
2022/11/01 08:28:14;;;;;;;0.00;0.00;;;14.70;99.90;14.10;97372.00;;;;4993922;28;20256;-75
2022/11/01 08:30:44;;;;;;;0.00;0.00;;;14.80;99.90;14.10;97385.00;;;;4994482;28;20690;-75
2022/11/01 08:33:12;;;;;;;0.00;0.00;;;14.90;99.90;14.20;97377.00;;;;4977127;28;20317;-75
2022/11/01 08:35:40;;;;;;;0.00;0.00;;;14.90;99.90;14.20;97374.00;;;;4994797;28;20184;-75
2022/11/01 08:38:16;;;;;;;0.00;0.00;;;15.00;99.90;14.30;97376.00;;;;4993556;28;20188;-75
2022/11/01 08:40:46;;;;;;;0.00;0.00;;;15.00;99.90;14.40;97367.00;;;;5004313;28;20215;-75
2022/11/01 08:43:18;;;;;;;0.00;0.00;;;15.10;99.90;14.40;97377.00;;;;5013042;28;20203;-75
2022/11/01 08:45:46;;;;;;;0.00;0.00;;;15.10;99.90;14.40;97380.00;;;;5012976;28;20666;-75
2022/11/01 08:48:15;;;;;;;0.00;0.00;;;15.20;99.90;14.50;97381.00;;;;4998796;28;20196;-76
2022/11/01 08:50:43;;;;;;;0.00;0.00;;;15.20;99.90;14.50;97385.00;;;;5014559;28;20188;-76
2022/11/01 08:53:14;;;;;;;0.00;0.00;;;15.30;99.90;14.60;97379.00;;;;5014349;28;20238;-75
2022/11/01 08:55:42;;;;;;;0.10;0.10;;;15.30;99.90;14.60;97378.00;;;;5014624;28;20187;-77
2022/11/01 08:58:11;;;;;;;0.00;0.00;;;15.30;99.90;14.60;97394.00;;;;5012704;28;20230;-76
2022/11/01 09:00:41;;;;;;;0.00;0.00;;;15.30;99.90;14.70;97395.00;;;;5013173;28;20192;-76
2022/11/01 09:03:09;;;;;;;0.00;0.00;;;15.40;99.90;14.70;97393.00;;;;5013011;28;20198;-75
2022/11/01 09:05:37;;;;;;;0.00;0.00;;;15.40;99.90;14.70;97401.00;;;;5013065;28;20223;-76
2022/11/01 09:08:06;;;;;;;0.00;0.00;;;15.50;99.90;14.70;97406.00;;;;5012562;28;20192;-76
2022/11/01 09:10:34;;;;;;;0.00;0.00;;;15.40;99.90;14.70;97368.00;;;;5013011;28;20195;-76
2022/11/01 09:13:02;;;;;;;0.00;0.00;;;15.50;99.90;14.80;97403.00;;;;5013088;28;20184;-75
2022/11/01 09:15:32;;;;;;;0.00;0.00;;;15.50;99.90;14.70;97397.00;;;;5013211;28;20196;-76
2022/11/01 09:18:06;;;;;;;0.00;0.00;;;15.50;99.90;14.80;97407.00;;;;5012044;28;20211;-76
2022/11/01 09:20:35;;;;;;;0.00;0.00;;;15.50;99.90;14.70;97409.00;;;;5013041;28;20654;-75
2022/11/01 09:23:03;;;;;;;0.00;0.00;;;15.50;99.90;14.70;97420.00;;;;5012744;28;20254;-77
2022/11/01 09:25:32;;;;;;;0.00;0.00;;;15.50;99.90;14.80;97417.00;;;;5013293;28;20202;-76
2022/11/01 09:28:00;;;;;;;0.00;0.00;;;15.50;99.90;14.80;97422.00;;;;4994495;28;20226;-75
2022/11/01 09:30:29;;;;;;;0.10;0.10;;;15.50;99.90;14.80;97421.00;;;;5012921;28;20541;-76
2022/11/01 09:32:57;;;;;;;0.00;0.00;;;15.50;99.90;14.80;97417.00;;;;5013300;28;20223;-75
2022/11/01 09:35:26;;;;;;;0.10;0.10;;;15.50;99.90;14.80;97416.00;;;;5013020;28;20271;-75
2022/11/01 09:37:58;;;;;;;0.00;0.00;;;15.60;99.90;14.90;97430.00;;;;5012207;28;20210;-75
2022/11/01 09:40:28;;;;;;;0.00;0.00;;;15.60;99.90;15.00;97435.00;;;;5012513;28;20234;-75
2022/11/01 09:42:57;;;;;;;0.00;0.00;;;15.70;99.90;15.00;97444.00;;;;5012723;28;20663;-76
2022/11/01 09:45:33;;;;;;;0.00;0.00;;;15.70;99.90;15.10;97427.00;;;;5012614;28;20605;-75
2022/11/01 09:48:04;;;;;;;0.00;0.00;;;15.80;99.90;15.10;97420.00;;;;5011762;28;20227;-76
2022/11/01 09:50:38;;;;;;;0.00;0.00;;;15.80;99.90;15.20;97444.00;;;;5013561;28;20223;-75
2022/11/01 09:53:13;;;;;;;0.00;0.00;;;15.90;99.90;15.20;97396.00;;;;5013007;28;20206;-76
2022/11/01 09:55:51;;;;;;;0.00;0.00;;;15.90;99.90;15.20;97428.00;;;;5012568;28;20666;-76
2022/11/01 09:58:36;;;;;;;0.00;0.00;;;15.90;99.90;15.20;97420.00;;;;5012544;28;20195;-76
2022/11/01 10:01:29;;;;;;;0.00;0.00;;;15.90;99.90;15.30;97416.00;;;;5012224;28;20670;-76
2022/11/01 10:04:43;;;;;;;0.00;0.00;;;16.00;99.90;15.40;97434.00;;;;5012486;28;20359;-76
2022/11/01 10:07:22;;;;;;;0.00;0.00;;;16.10;99.90;15.50;97421.00;;;;5012173;28;20269;-76
2022/11/01 10:10:04;;;;;;;0.10;0.10;;;16.10;99.90;15.50;97428.00;;;;5012355;28;20196;-76
2022/11/01 10:12:48;;;;;;;0.00;0.00;;;16.20;99.90;15.50;97433.00;;;;5012459;28;20655;-76
2022/11/01 10:15:41;;;;;;;0.00;0.00;;;16.20;99.90;15.60;97435.00;;;;5012014;28;20246;-76
2022/11/01 10:18:25;;;;;;;0.00;0.00;;;16.20;99.90;15.60;97442.00;;;;5010240;28;20199;-75
2022/11/01 10:20:57;;;;;;;0.00;0.00;;;16.20;99.90;15.60;97446.00;;;;5012078;28;20199;-76
2022/11/01 10:23:43;;;;;;;0.00;0.00;;;16.30;99.90;15.60;97437.00;;;;5012100;28;20557;-76
2022/11/01 10:26:18;;;;;;;0.00;0.00;;;16.20;99.90;15.60;97436.00;;;;5010647;28;20212;-75
2022/11/01 10:28:57;;;;;;;0.00;0.00;;;16.20;99.90;15.50;97416.00;;;;5011176;28;20536;-76
2022/11/01 10:31:29;;;;;;;0.00;0.00;;;16.20;99.90;15.60;97453.00;;;;5012504;28;20227;-75
2022/11/01 10:34:03;;;;;;;0.00;0.00;;;16.30;99.90;15.60;97445.00;;;;5012565;28;20274;-76
2022/11/01 10:36:35;;;;;;;0.00;0.00;;;16.30;99.90;15.60;97445.00;;;;4994320;28;20218;-76
2022/11/01 10:39:25;;;;;;;0.00;0.00;;;16.30;99.90;15.50;97445.00;;;;5013374;28;20250;-76
2022/11/01 10:42:16;;;;;;;0.00;0.00;;;16.30;99.90;15.50;97444.00;;;;5015434;28;20194;-76
2022/11/01 10:44:54;;;;;;;0.00;0.00;;;16.20;99.90;15.60;97447.00;;;;5016167;28;20571;-76
2022/11/01 10:47:24;;;;;;;0.00;0.00;;;16.30;99.90;15.60;97448.00;;;;5014580;28;20230;-76
2022/11/01 10:49:59;;;;;;;0.00;0.00;;;16.30;99.90;15.60;97422.00;;;;5014343;28;20246;-76
2022/11/01 10:52:47;;;;;;;0.00;0.00;;;16.30;99.90;15.60;97451.00;;;;5013899;28;20195;-77
2022/11/01 10:55:23;;;;;;;0.00;0.00;;;16.30;99.90;15.70;97448.00;;;;5005185;28;20211;-75
2022/11/01 10:57:57;;;;;;;0.00;0.00;;;16.40;99.90;15.70;97466.00;;;;5013568;28;20207;-75
2022/11/01 11:00:25;;;;;;;0.00;0.00;;;16.40;99.90;15.70;97459.00;;;;5011820;28;20383;-75
2022/11/01 11:02:58;;;;;;;0.00;0.00;;;16.40;99.90;15.70;97459.00;;;;4981818;28;20262;-75
2022/11/01 11:05:31;;;;;;;0.00;0.00;;;16.40;99.90;15.80;97451.00;;;;4994543;28;20204;-75
2022/11/01 11:08:03;;;;;;;0.00;0.00;;;16.50;99.90;15.90;97455.00;;;;4993666;28;20790;-75
2022/11/01 11:10:34;;;;;;;0.00;0.00;;;16.50;99.90;15.80;97451.00;;;;5009361;28;20230;-75
2022/11/01 11:13:07;;;;;;;0.00;0.00;;;16.50;99.90;15.90;97449.00;;;;5014504;28;20614;-75
2022/11/01 11:15:44;;;;;;;0.00;0.00;;;16.60;99.90;15.90;97454.00;;;;5013732;28;20223;-75
2022/11/01 11:18:24;;;;;;;0.00;0.00;;;16.60;99.90;15.90;97456.00;;;;5013733;28;20200;-75
2022/11/01 11:20:57;;;;;;;0.00;0.00;;;16.60;99.90;16.00;97462.00;;;;5014190;28;20188;-75
2022/11/01 11:23:28;;;;;;;0.00;0.00;;;16.60;99.90;15.90;97458.00;;;;5014393;28;20610;-75
2022/11/01 11:26:04;;;;;;;0.00;0.00;;;16.60;99.90;15.90;97451.00;;;;4996626;28;20290;-75
2022/11/01 11:28:41;;;;;;;0.00;0.00;;;16.60;99.90;16.00;97461.00;;;;5006877;28;20196;-75